Time;durP1;ratioP1;P1;durP2;ratioP2;P2;SDS_P1;SDS_P2;PMS_P1;PMS_P2;Temp;Humidity;BMP_temperature;BMP_pressure;BME280_temperature;BME280_humidity;BME280_pressure;Samples;Min_cycle;Max_cycle;Signal;HPM_P1;HPM_P2
2023/12/02 00:01:35;;;;;;;22.47;9.37;;;;;;;;;;4985270;28;20033;-68
2023/12/02 00:04:00;;;;;;;25.58;9.65;;;;;;;;;;4985991;28;20278;-69
2023/12/02 00:06:25;;;;;;;20.85;9.02;;;;;;;;;;4986221;28;20118;-68
2023/12/02 00:08:51;;;;;;;23.47;8.97;;;;;;;;;;4984177;28;20022;-69
2023/12/02 00:11:16;;;;;;;5.95;3.35;;;;;;;;;;4981271;28;20681;-68
2023/12/02 00:13:41;;;;;;;27.95;10.77;;;;;;;;;;4985067;28;20018;-69
2023/12/02 00:16:07;;;;;;;26.20;10.50;;;;;;;;;;4988223;28;20023;-69
2023/12/02 00:18:32;;;;;;;23.42;10.05;;;;;;;;;;4983238;28;20858;-69
2023/12/02 00:20:57;;;;;;;28.10;10.60;;;;;;;;;;4982410;28;20490;-69
2023/12/02 00:23:23;;;;;;;24.38;10.40;;;;;;;;;;4980280;28;20293;-68
2023/12/02 00:25:48;;;;;;;22.70;9.48;;;;;;;;;;4983564;28;20023;-68
2023/12/02 00:28:14;;;;;;;24.08;10.30;;;;;;;;;;4981474;28;20046;-69
2023/12/02 00:30:39;;;;;;;22.38;10.43;;;;;;;;;;4981528;28;20023;-68
2023/12/02 00:33:04;;;;;;;14.02;5.63;;;;;;;;;;4981879;28;20038;-69
2023/12/02 00:35:29;;;;;;;20.23;9.20;;;;;;;;;;4979020;28;20015;-68
2023/12/02 00:37:54;;;;;;;23.15;9.38;;;;;;;;;;4983021;28;20537;-68
2023/12/02 00:40:19;;;;;;;21.38;9.23;;;;;;;;;;4976671;28;20023;-68
2023/12/02 00:42:45;;;;;;;24.67;9.50;;;;;;;;;;4977531;28;20576;-69
2023/12/02 00:45:10;;;;;;;25.10;11.10;;;;;;;;;;4981245;28;20101;-68
2023/12/02 00:47:35;;;;;;;21.90;9.70;;;;;;;;;;4983979;28;20818;-69
2023/12/02 00:50:00;;;;;;;26.85;10.98;;;;;;;;;;4975033;28;20027;-69
2023/12/02 00:52:25;;;;;;;24.48;10.05;;;;;;;;;;4983455;28;20033;-68
2023/12/02 00:54:50;;;;;;;22.07;10.53;;;;;;;;;;4982296;28;20035;-68
2023/12/02 00:57:16;;;;;;;24.20;10.00;;;;;;;;;;4966047;28;20834;-69
2023/12/02 00:59:41;;;;;;;24.95;10.70;;;;;;;;;;4982589;28;20011;-68
2023/12/02 01:02:06;;;;;;;24.58;10.18;;;;;;;;;;4982466;28;20029;-68
2023/12/02 01:04:32;;;;;;;28.50;11.00;;;;;;;;;;4979576;28;20018;-68
2023/12/02 01:06:57;;;;;;;24.77;10.80;;;;;;;;;;4986215;28;20049;-68
2023/12/02 01:09:22;;;;;;;24.85;10.63;;;;;;;;;;4983675;28;20022;-69
2023/12/02 01:11:47;;;;;;;27.45;11.38;;;;;;;;;;4981123;28;20395;-68
2023/12/02 01:14:12;;;;;;;25.38;11.02;;;;;;;;;;4981465;28;20046;-69
2023/12/02 01:16:37;;;;;;;21.42;9.35;;;;;;;;;;4986888;28;20021;-68
2023/12/02 01:19:03;;;;;;;24.43;9.47;;;;;;;;;;4981253;28;20033;-68
2023/12/02 01:21:28;;;;;;;30.40;11.52;;;;;;;;;;4985113;28;20289;-68
2023/12/02 01:23:53;;;;;;;26.50;11.40;;;;;;;;;;4981531;28;20103;-69
2023/12/02 01:26:18;;;;;;;23.50;9.38;;;;;;;;;;4984477;28;20477;-69
2023/12/02 01:28:44;;;;;;;26.55;10.10;;;;;;;;;;4987573;28;20045;-68
2023/12/02 01:31:09;;;;;;;25.27;9.85;;;;;;;;;;4984536;28;20057;-69
2023/12/02 01:33:34;;;;;;;17.85;8.45;;;;;;;;;;4982449;28;20026;-68
2023/12/02 01:35:59;;;;;;;29.45;10.50;;;;;;;;;;4985388;28;20118;-68
2023/12/02 01:38:24;;;;;;;25.20;11.75;;;;;;;;;;4983252;28;20023;-68
2023/12/02 01:40:50;;;;;;;24.80;10.82;;;;;;;;;;4987251;28;21423;-69
2023/12/02 01:43:20;;;;;;;18.42;9.15;;;;;;;;;;4984370;28;20414;-69
2023/12/02 01:45:45;;;;;;;22.50;9.95;;;;;;;;;;4989184;28;20026;-68
2023/12/02 01:48:11;;;;;;;26.55;10.48;;;;;;;;;;4984605;28;20444;-68
2023/12/02 01:50:36;;;;;;;25.50;11.68;;;;;;;;;;4984431;28;20014;-69
2023/12/02 01:53:01;;;;;;;24.30;10.27;;;;;;;;;;4981579;28;20019;-68
2023/12/02 01:55:26;;;;;;;22.00;9.85;;;;;;;;;;4985142;28;20077;-68
2023/12/02 01:57:52;;;;;;;28.10;10.15;;;;;;;;;;4985285;28;20601;-68
2023/12/02 02:00:17;;;;;;;23.98;10.25;;;;;;;;;;4982046;28;20027;-69
2023/12/02 02:02:42;;;;;;;23.08;10.32;;;;;;;;;;4983098;28;20435;-68
2023/12/02 02:05:07;;;;;;;24.80;9.90;;;;;;;;;;4982893;28;20062;-69
2023/12/02 02:07:33;;;;;;;21.45;9.60;;;;;;;;;;4982064;28;20057;-68
2023/12/02 02:09:58;;;;;;;25.23;10.55;;;;;;;;;;4984216;28;20429;-69
2023/12/02 02:12:23;;;;;;;20.55;9.75;;;;;;;;;;4981961;28;20117;-68
2023/12/02 02:14:48;;;;;;;26.92;11.07;;;;;;;;;;4983320;28;20046;-68
2023/12/02 02:17:13;;;;;;;23.25;8.75;;;;;;;;;;4982993;28;20030;-68
2023/12/02 02:19:39;;;;;;;24.00;9.15;;;;;;;;;;4986239;28;20033;-68
2023/12/02 02:22:04;;;;;;;20.08;9.25;;;;;;;;;;4986762;28;20033;-69
2023/12/02 02:24:29;;;;;;;24.30;9.47;;;;;;;;;;4985016;28;20123;-68
2023/12/02 02:26:54;;;;;;;24.17;9.93;;;;;;;;;;4988129;28;20265;-69
2023/12/02 02:29:19;;;;;;;24.15;9.27;;;;;;;;;;4982465;28;20018;-68
2023/12/02 02:31:44;;;;;;;18.95;8.05;;;;;;;;;;4983274;28;20022;-68
2023/12/02 02:34:10;;;;;;;25.58;9.48;;;;;;;;;;4983320;28;20014;-68
2023/12/02 02:36:35;;;;;;;22.38;8.38;;;;;;;;;;4984445;28;20022;-68
2023/12/02 02:39:00;;;;;;;19.95;8.82;;;;;;;;;;4980754;28;20536;-68
2023/12/02 02:41:25;;;;;;;19.55;8.70;;;;;;;;;;4985319;28;20031;-69
2023/12/02 02:43:50;;;;;;;23.93;9.53;;;;;;;;;;4984717;28;20026;-69
2023/12/02 02:46:16;;;;;;;20.63;8.65;;;;;;;;;;4984129;28;20278;-68
2023/12/02 02:48:41;;;;;;;26.67;10.38;;;;;;;;;;4984069;28;20018;-68
2023/12/02 02:51:07;;;;;;;22.02;9.60;;;;;;;;;;4984243;28;20027;-69
2023/12/02 02:53:32;;;;;;;25.83;10.43;;;;;;;;;;4983455;28;20033;-69
2023/12/02 02:55:57;;;;;;;20.50;9.70;;;;;;;;;;4984474;28;20017;-69
2023/12/02 02:58:22;;;;;;;23.53;9.30;;;;;;;;;;4985990;28;20037;-69
2023/12/02 03:00:48;;;;;;;21.85;9.38;;;;;;;;;;4980274;28;20270;-69
2023/12/02 03:03:13;;;;;;;23.30;10.05;;;;;;;;;;4981091;28;20026;-69
2023/12/02 03:05:38;;;;;;;24.17;9.20;;;;;;;;;;4985920;28;20057;-69
2023/12/02 03:08:03;;;;;;;30.00;10.43;;;;;;;;;;4984279;28;20120;-69
2023/12/02 03:10:29;;;;;;;25.65;10.85;;;;;;;;;;4982843;28;20645;-70
2023/12/02 03:12:54;;;;;;;23.05;8.95;;;;;;;;;;4987258;28;20018;-69
2023/12/02 03:15:19;;;;;;;24.50;9.97;;;;;;;;;;4983591;28;20025;-69
2023/12/02 03:17:44;;;;;;;20.90;9.40;;;;;;;;;;4984900;28;20328;-69
2023/12/02 03:20:10;;;;;;;21.58;9.77;;;;;;;;;;4984652;28;20166;-69
2023/12/02 03:22:35;;;;;;;23.38;9.10;;;;;;;;;;4982172;28;20022;-69
2023/12/02 03:25:00;;;;;;;23.63;10.13;;;;;;;;;;4981081;28;20022;-69
2023/12/02 03:27:25;;;;;;;21.43;9.60;;;;;;;;;;4979607;28;20041;-69
2023/12/02 03:29:51;;;;;;;24.53;9.83;;;;;;;;;;4987267;28;20257;-69
2023/12/02 03:32:16;;;;;;;25.40;11.52;;;;;;;;;;4982717;28;20301;-69
2023/12/02 03:34:41;;;;;;;27.92;10.88;;;;;;;;;;4985222;28;20437;-70
2023/12/02 03:37:07;;;;;;;29.53;12.27;;;;;;;;;;4984515;28;20065;-69
2023/12/02 03:39:32;;;;;;;22.63;10.48;;;;;;;;;;4982990;28;20273;-69
2023/12/02 03:41:57;;;;;;;23.45;10.10;;;;;;;;;;4980545;28;20030;-69
2023/12/02 03:44:22;;;;;;;22.20;10.32;;;;;;;;;;4984112;28;20026;-69
2023/12/02 03:46:47;;;;;;;24.88;10.52;;;;;;;;;;4983164;28;20018;-69
2023/12/02 03:49:13;;;;;;;24.80;9.93;;;;;;;;;;4985926;28;20049;-69
2023/12/02 03:51:38;;;;;;;24.38;10.70;;;;;;;;;;4983244;28;20026;-69
2023/12/02 03:54:03;;;;;;;24.50;9.82;;;;;;;;;;4983075;28;20025;-70
2023/12/02 03:56:28;;;;;;;21.70;9.63;;;;;;;;;;4982010;28;20027;-69
2023/12/02 03:58:55;;;;;;;19.88;8.57;;;;;;;;;;4981333;28;20041;-69
2023/12/02 04:01:20;;;;;;;18.73;8.73;;;;;;;;;;4979204;28;20066;-69
2023/12/02 04:03:46;;;;;;;16.42;8.32;;;;;;;;;;4983429;28;20026;-69
2023/12/02 04:06:11;;;;;;;21.98;9.60;;;;;;;;;;4979615;28;20088;-69
2023/12/02 04:08:36;;;;;;;24.00;9.02;;;;;;;;;;4981392;28;20018;-70
2023/12/02 04:11:02;;;;;;;19.23;9.90;;;;;;;;;;4983543;28;20078;-69
2023/12/02 04:13:28;;;;;;;22.83;9.38;;;;;;;;;;4984369;28;20022;-69
2023/12/02 04:15:53;;;;;;;23.27;9.07;;;;;;;;;;4983573;28;20030;-69
2023/12/02 04:18:18;;;;;;;18.20;8.87;;;;;;;;;;4982447;28;20366;-69
2023/12/02 04:20:43;;;;;;;24.30;9.80;;;;;;;;;;4985073;28;20372;-69
2023/12/02 04:23:08;;;;;;;20.60;8.90;;;;;;;;;;4983785;28;20790;-69
2023/12/02 04:25:34;;;;;;;16.05;8.40;;;;;;;;;;4987560;28;20038;-69
2023/12/02 04:27:59;;;;;;;19.45;8.95;;;;;;;;;;4984700;28;20036;-69
2023/12/02 04:30:24;;;;;;;15.97;7.67;;;;;;;;;;4981232;28;20026;-69
2023/12/02 04:32:50;;;;;;;25.48;8.98;;;;;;;;;;4982536;28;20377;-69
2023/12/02 04:35:15;;;;;;;17.50;8.32;;;;;;;;;;4981197;28;20034;-69
2023/12/02 04:37:41;;;;;;;18.92;7.90;;;;;;;;;;4983265;28;20014;-69
2023/12/02 04:40:10;;;;;;;19.83;9.38;;;;;;;;;;4982827;28;20052;-69
2023/12/02 04:42:36;;;;;;;22.02;9.65;;;;;;;;;;4986182;28;20609;-69
2023/12/02 04:45:01;;;;;;;21.00;9.63;;;;;;;;;;4985357;28;20057;-69
2023/12/02 04:47:26;;;;;;;20.13;9.00;;;;;;;;;;4986082;28;20037;-69
2023/12/02 04:49:52;;;;;;;23.37;9.83;;;;;;;;;;4991116;28;20026;-69
2023/12/02 04:52:17;;;;;;;19.63;7.97;;;;;;;;;;4987053;28;20296;-69
2023/12/02 04:54:42;;;;;;;17.85;8.43;;;;;;;;;;4987378;28;20273;-69
2023/12/02 04:57:07;;;;;;;18.50;8.50;;;;;;;;;;4986157;28;20018;-69
2023/12/02 04:59:32;;;;;;;19.23;7.93;;;;;;;;;;4986397;28;20133;-69
2023/12/02 05:01:58;;;;;;;19.00;8.48;;;;;;;;;;4987262;28;20261;-69
2023/12/02 05:04:23;;;;;;;24.75;9.48;;;;;;;;;;4986936;28;20079;-69
2023/12/02 05:06:50;;;;;;;21.10;9.32;;;;;;;;;;4988208;28;20381;-69
2023/12/02 05:09:16;;;;;;;24.48;8.85;;;;;;;;;;4987330;28;20054;-70
2023/12/02 05:11:41;;;;;;;17.92;8.63;;;;;;;;;;4984533;28;20064;-69
2023/12/02 05:14:06;;;;;;;18.00;8.07;;;;;;;;;;4986600;28;20076;-69
2023/12/02 05:16:31;;;;;;;17.73;8.80;;;;;;;;;;4987684;28;20022;-69
2023/12/02 05:18:56;;;;;;;18.45;8.70;;;;;;;;;;4987291;28;20489;-69
2023/12/02 05:21:22;;;;;;;23.48;9.05;;;;;;;;;;4985223;28;20464;-70
2023/12/02 05:23:47;;;;;;;20.25;9.13;;;;;;;;;;4986144;28;20034;-69
2023/12/02 05:26:12;;;;;;;20.08;8.90;;;;;;;;;;4981930;28;20691;-69
2023/12/02 05:28:38;;;;;;;20.45;8.70;;;;;;;;;;4988634;28;20027;-69
2023/12/02 05:31:03;;;;;;;20.52;9.27;;;;;;;;;;4987647;28;20045;-69
2023/12/02 05:33:28;;;;;;;19.75;9.40;;;;;;;;;;4985845;28;20077;-69
2023/12/02 05:35:53;;;;;;;20.13;9.13;;;;;;;;;;4989791;28;20022;-69
2023/12/02 05:38:18;;;;;;;22.42;8.90;;;;;;;;;;4987153;28;20073;-69
2023/12/02 05:40:44;;;;;;;21.67;9.63;;;;;;;;;;4989153;28;20142;-69
2023/12/02 05:43:09;;;;;;;24.85;10.60;;;;;;;;;;4984468;28;20289;-70
2023/12/02 05:45:34;;;;;;;22.13;9.30;;;;;;;;;;4987322;28;20050;-69
2023/12/02 05:47:59;;;;;;;19.70;8.75;;;;;;;;;;4986834;28;20297;-69
2023/12/02 05:50:25;;;;;;;23.30;10.02;;;;;;;;;;4985119;28;20019;-69
2023/12/02 05:52:50;;;;;;;21.30;10.25;;;;;;;;;;4986661;28;20030;-69
2023/12/02 05:55:15;;;;;;;17.52;8.82;;;;;;;;;;4984873;28;20031;-69
2023/12/02 05:57:42;;;;;;;21.90;9.67;;;;;;;;;;4988037;28;20018;-69
2023/12/02 06:00:07;;;;;;;26.70;10.70;;;;;;;;;;4985710;28;20316;-69
2023/12/02 06:02:32;;;;;;;22.08;9.82;;;;;;;;;;4987504;28;20030;-69
2023/12/02 06:04:58;;;;;;;18.90;9.60;;;;;;;;;;4988382;28;20130;-69
2023/12/02 06:07:23;;;;;;;26.23;10.97;;;;;;;;;;4985938;28;20269;-69
2023/12/02 06:09:48;;;;;;;20.00;10.40;;;;;;;;;;4983469;28;20301;-69
2023/12/02 06:12:13;;;;;;;25.40;10.80;;;;;;;;;;4985529;28;20529;-69
2023/12/02 06:14:39;;;;;;;21.63;9.43;;;;;;;;;;4990033;28;20025;-69
2023/12/02 06:17:05;;;;;;;21.85;9.93;;;;;;;;;;4986122;28;20272;-69
2023/12/02 06:19:30;;;;;;;23.38;10.55;;;;;;;;;;4985849;28;20026;-69
2023/12/02 06:21:55;;;;;;;21.13;10.05;;;;;;;;;;4982201;28;20038;-69
2023/12/02 06:24:21;;;;;;;23.10;9.97;;;;;;;;;;4982061;28;20019;-69
2023/12/02 06:26:46;;;;;;;25.65;11.05;;;;;;;;;;4987601;28;20258;-69
2023/12/02 06:29:11;;;;;;;27.08;11.05;;;;;;;;;;4985747;28;20081;-69
2023/12/02 06:31:37;;;;;;;24.00;10.60;;;;;;;;;;4986063;28;20026;-69
2023/12/02 06:34:04;;;;;;;25.60;10.30;;;;;;;;;;4987251;28;20034;-69
2023/12/02 06:36:29;;;;;;;25.90;10.57;;;;;;;;;;4986039;28;20122;-69
2023/12/02 06:38:54;;;;;;;26.35;11.23;;;;;;;;;;4987286;28;20516;-69
2023/12/02 06:41:19;;;;;;;20.88;9.77;;;;;;;;;;4984514;28;20034;-69
2023/12/02 06:43:44;;;;;;;22.53;10.00;;;;;;;;;;4986479;28;20018;-69
2023/12/02 06:46:18;;;;;;;23.30;11.53;;;;;;;;;;4986489;28;20286;-69
2023/12/02 06:48:43;;;;;;;27.58;12.35;;;;;;;;;;4987994;28;20269;-69
2023/12/02 06:51:08;;;;;;;31.15;10.60;;;;;;;;;;4987546;28;20032;-69
2023/12/02 06:53:34;;;;;;;25.42;9.82;;;;;;;;;;4984369;28;20375;-69
2023/12/02 06:55:59;;;;;;;29.98;11.20;;;;;;;;;;4987788;28;20022;-69
2023/12/02 06:58:24;;;;;;;30.33;11.47;;;;;;;;;;4986189;28;20030;-69
2023/12/02 07:00:50;;;;;;;28.90;11.45;;;;;;;;;;4986510;28;20265;-69
2023/12/02 07:03:16;;;;;;;27.35;11.48;;;;;;;;;;4987376;28;20030;-69
2023/12/02 07:05:41;;;;;;;25.00;10.37;;;;;;;;;;4987189;28;20092;-69
2023/12/02 07:08:06;;;;;;;25.30;10.73;;;;;;;;;;4988283;28;20286;-69
2023/12/02 07:10:31;;;;;;;23.88;10.80;;;;;;;;;;4983822;28;20806;-69
2023/12/02 07:12:56;;;;;;;27.23;11.57;;;;;;;;;;4989114;28;20022;-69
2023/12/02 07:15:21;;;;;;;26.10;9.97;;;;;;;;;;4986892;28;20312;-69
2023/12/02 07:17:47;;;;;;;36.60;11.43;;;;;;;;;;4986262;28;20274;-69
2023/12/02 07:20:14;;;;;;;30.38;11.93;;;;;;;;;;4987635;28;20280;-69
2023/12/02 07:22:39;;;;;;;22.98;10.13;;;;;;;;;;4986169;28;20030;-71
2023/12/02 07:25:04;;;;;;;37.72;13.90;;;;;;;;;;4987253;28;20022;-69
2023/12/02 07:27:30;;;;;;;27.30;10.73;;;;;;;;;;4985609;28;20549;-69
2023/12/02 07:29:55;;;;;;;29.38;11.25;;;;;;;;;;4986724;28;20109;-69
2023/12/02 07:32:20;;;;;;;22.05;9.73;;;;;;;;;;4986588;28;20026;-69
2023/12/02 07:34:45;;;;;;;28.80;11.37;;;;;;;;;;4985269;28;20038;-69
2023/12/02 07:37:10;;;;;;;25.92;10.48;;;;;;;;;;4984243;28;20266;-69
2023/12/02 07:39:36;;;;;;;26.85;11.60;;;;;;;;;;4983359;28;20014;-69
2023/12/02 07:42:01;;;;;;;34.47;11.98;;;;;;;;;;4983125;28;20026;-69
2023/12/02 07:44:26;;;;;;;28.73;10.95;;;;;;;;;;4985534;28;20318;-69
2023/12/02 07:46:51;;;;;;;26.45;10.75;;;;;;;;;;4987925;28;20022;-69
2023/12/02 07:49:16;;;;;;;28.03;10.63;;;;;;;;;;4986260;28;20044;-69
2023/12/02 07:51:42;;;;;;;29.50;11.88;;;;;;;;;;4986325;28;20258;-69
2023/12/02 07:54:07;;;;;;;31.77;11.15;;;;;;;;;;4986658;28;20042;-68
2023/12/02 07:56:32;;;;;;;28.17;10.70;;;;;;;;;;4985158;28;20027;-68
2023/12/02 07:58:57;;;;;;;34.03;13.10;;;;;;;;;;4986635;28;20279;-68
2023/12/02 08:01:22;;;;;;;28.38;11.23;;;;;;;;;;4985851;28;20031;-68
2023/12/02 08:03:48;;;;;;;32.40;12.80;;;;;;;;;;4986419;28;20034;-68
2023/12/02 08:06:13;;;;;;;34.17;14.03;;;;;;;;;;4987456;28;20027;-68
2023/12/02 08:08:38;;;;;;;27.20;12.60;;;;;;;;;;4984987;28;20333;-68
2023/12/02 08:11:03;;;;;;;27.60;10.03;;;;;;;;;;4986106;28;20486;-68
2023/12/02 08:13:29;;;;;;;30.63;10.20;;;;;;;;;;4987338;28;20380;-68
2023/12/02 08:15:54;;;;;;;25.45;10.60;;;;;;;;;;4986117;28;20540;-68
2023/12/02 08:18:21;;;;;;;27.65;10.48;;;;;;;;;;4984745;28;20437;-68
2023/12/02 08:20:46;;;;;;;30.00;11.45;;;;;;;;;;4987175;28;20033;-69
2023/12/02 08:23:11;;;;;;;30.77;11.48;;;;;;;;;;4987746;28;20398;-69
2023/12/02 08:25:37;;;;;;;28.45;11.20;;;;;;;;;;4986384;28;20520;-69
2023/12/02 08:28:02;;;;;;;33.38;12.05;;;;;;;;;;4986912;28;20035;-69
2023/12/02 08:30:27;;;;;;;27.08;11.25;;;;;;;;;;4985423;28;20030;-69
2023/12/02 08:32:52;;;;;;;25.05;10.63;;;;;;;;;;4986599;28;20076;-69
2023/12/02 08:35:17;;;;;;;24.73;10.90;;;;;;;;;;4985404;28;20018;-69
2023/12/02 08:37:43;;;;;;;26.00;11.50;;;;;;;;;;4985640;28;20426;-69
2023/12/02 08:40:08;;;;;;;27.63;11.05;;;;;;;;;;4989778;28;20257;-69
2023/12/02 08:42:33;;;;;;;25.95;10.55;;;;;;;;;;4985032;28;20053;-69
2023/12/02 08:44:58;;;;;;;26.55;9.93;;;;;;;;;;4985851;28;20034;-69
2023/12/02 08:47:23;;;;;;;25.80;10.50;;;;;;;;;;4982627;28;20026;-69
2023/12/02 08:49:48;;;;;;;26.77;10.60;;;;;;;;;;4986248;28;20028;-69
2023/12/02 08:52:14;;;;;;;30.00;11.68;;;;;;;;;;4987943;28;20777;-69
2023/12/02 08:54:39;;;;;;;22.15;9.75;;;;;;;;;;4974339;28;20097;-69
2023/12/02 08:57:04;;;;;;;27.42;10.45;;;;;;;;;;4989566;28;20367;-69
2023/12/02 08:59:29;;;;;;;24.98;11.23;;;;;;;;;;4985164;28;20026;-69
2023/12/02 09:01:55;;;;;;;24.58;9.75;;;;;;;;;;4990100;28;20031;-69
2023/12/02 09:04:20;;;;;;;30.25;11.93;;;;;;;;;;4992057;28;20023;-69
2023/12/02 09:06:45;;;;;;;31.13;10.75;;;;;;;;;;4989625;28;20125;-69
2023/12/02 09:09:10;;;;;;;31.17;11.77;;;;;;;;;;4988052;28;20085;-69
2023/12/02 09:11:35;;;;;;;34.17;12.33;;;;;;;;;;4985469;28;20261;-69
2023/12/02 09:14:00;;;;;;;28.38;12.20;;;;;;;;;;4984073;28;20320;-69
2023/12/02 09:16:29;;;;;;;23.35;9.90;;;;;;;;;;4984782;28;20146;-69
2023/12/02 09:18:55;;;;;;;27.92;11.07;;;;;;;;;;4984627;28;20022;-69
2023/12/02 09:21:20;;;;;;;34.22;11.27;;;;;;;;;;4986506;28;20038;-69
2023/12/02 09:23:46;;;;;;;30.47;12.27;;;;;;;;;;4988062;28;20056;-69
2023/12/02 09:26:26;;;;;;;30.30;11.93;;;;;;;;;;4987653;28;20273;-69
2023/12/02 09:28:51;;;;;;;28.83;11.55;;;;;;;;;;4983622;28;20018;-69
2023/12/02 09:31:17;;;;;;;27.75;11.32;;;;;;;;;;4991800;28;20494;-69
2023/12/02 09:33:43;;;;;;;25.85;10.75;;;;;;;;;;4990011;28;20018;-69
2023/12/02 09:36:25;;;;;;;29.33;10.65;;;;;;;;;;4991064;28;20631;-69
2023/12/02 09:38:52;;;;;;;25.55;10.63;;;;;;;;;;4991903;28;20014;-69
2023/12/02 09:41:27;;;;;;;26.88;10.77;;;;;;;;;;4990240;28;20022;-69
2023/12/02 09:44:03;;;;;;;23.70;11.13;;;;;;;;;;4990653;28;20533;-69
2023/12/02 09:46:32;;;;;;;26.52;9.93;;;;;;;;;;4989560;28;20073;-69
2023/12/02 09:49:17;;;;;;;32.13;11.18;;;;;;;;;;4991392;28;20061;-69
2023/12/02 09:52:07;;;;;;;28.40;10.35;;;;;;;;;;4990668;28;20046;-69
2023/12/02 09:54:51;;;;;;;24.55;10.95;;;;;;;;;;4987869;28;20109;-69
2023/12/02 09:57:33;;;;;;;26.35;12.52;;;;;;;;;;4989412;28;20069;-68
2023/12/02 09:59:58;;;;;;;30.02;11.13;;;;;;;;;;4985625;28;20019;-68
2023/12/02 10:02:23;;;;;;;29.37;11.83;;;;;;;;;;4985682;28;20045;-68
2023/12/02 10:04:51;;;;;;;30.63;11.18;;;;;;;;;;4984840;28;20319;-68
2023/12/02 10:07:17;;;;;;;28.15;12.55;;;;;;;;;;4984379;28;20772;-68
2023/12/02 10:09:44;;;;;;;24.75;10.75;;;;;;;;;;4987881;28;20035;-68
2023/12/02 10:12:22;;;;;;;27.33;11.70;;;;;;;;;;4989503;28;20257;-68
2023/12/02 10:14:51;;;;;;;28.83;12.15;;;;;;;;;;4987550;28;20752;-68
2023/12/02 10:17:19;;;;;;;27.95;11.88;;;;;;;;;;4988382;28;20042;-68
2023/12/02 10:19:52;;;;;;;24.42;10.65;;;;;;;;;;4989478;28;20025;-68
2023/12/02 10:22:18;;;;;;;28.55;11.45;;;;;;;;;;4988895;28;20018;-68
2023/12/02 10:25:07;;;;;;;25.75;11.85;;;;;;;;;;4984693;28;20154;-68
2023/12/02 10:27:35;;;;;;;29.80;12.38;;;;;;;;;;4974989;28;20045;-68
2023/12/02 10:30:12;;;;;;;41.05;13.57;;;;;;;;;;4984938;28;20026;-68
2023/12/02 10:32:44;;;;;;;38.38;14.63;;;;;;;;;;4970843;28;20729;-69
2023/12/02 10:35:27;;;;;;;33.72;16.60;;;;;;;;;;4987470;28;20077;-68
2023/12/02 10:37:54;;;;;;;29.02;12.77;;;;;;;;;;4986937;28;20117;-68
2023/12/02 10:40:22;;;;;;;24.50;11.65;;;;;;;;;;4989478;28;20041;-68
2023/12/02 10:42:51;;;;;;;31.05;15.52;;;;;;;;;;4988504;28;20399;-68
2023/12/02 10:45:19;;;;;;;25.20;11.52;;;;;;;;;;4988789;28;20022;-68
2023/12/02 10:47:45;;;;;;;28.90;12.77;;;;;;;;;;4985471;28;20693;-68
2023/12/02 10:50:11;;;;;;;32.05;12.30;;;;;;;;;;4983871;28;20023;-68
2023/12/02 10:52:37;;;;;;;34.20;13.27;;;;;;;;;;4980518;28;20022;-68
2023/12/02 10:55:03;;;;;;;30.48;14.98;;;;;;;;;;4978145;28;20125;-68
2023/12/02 10:57:28;;;;;;;31.10;12.10;;;;;;;;;;4989494;28;20110;-68
2023/12/02 11:00:06;;;;;;;33.53;13.45;;;;;;;;;;4989135;28;20050;-68
2023/12/02 11:02:52;;;;;;;27.73;11.70;;;;;;;;;;4984229;28;20034;-68
2023/12/02 11:05:21;;;;;;;26.70;12.45;;;;;;;;;;4978444;28;20096;-68
2023/12/02 11:07:54;;;;;;;24.42;11.00;;;;;;;;;;4981740;28;20022;-68
2023/12/02 11:10:39;;;;;;;32.00;15.80;;;;;;;;;;4989831;28;20073;-68
2023/12/02 11:13:12;;;;;;;31.75;11.90;;;;;;;;;;4983279;28;20049;-68
2023/12/02 11:15:42;;;;;;;31.05;12.45;;;;;;;;;;4983571;28;20022;-68
2023/12/02 11:18:10;;;;;;;29.77;12.25;;;;;;;;;;4987658;28;20060;-68
2023/12/02 11:20:48;;;;;;;29.13;12.15;;;;;;;;;;4988262;28;20029;-68
2023/12/02 11:23:33;;;;;;;25.85;11.05;;;;;;;;;;4977791;28;20101;-68
2023/12/02 11:26:17;;;;;;;30.35;12.60;;;;;;;;;;4984073;28;20026;-69
2023/12/02 11:28:54;;;;;;;27.55;10.52;;;;;;;;;;4986632;28;20389;-69
2023/12/02 11:31:37;;;;;;;27.25;12.27;;;;;;;;;;4983451;28;20452;-69
2023/12/02 11:34:05;;;;;;;24.27;11.15;;;;;;;;;;4979467;28;20110;-69
2023/12/02 11:36:37;;;;;;;30.92;11.88;;;;;;;;;;4979004;28;20026;-69
2023/12/02 11:39:23;;;;;;;31.73;12.82;;;;;;;;;;4987574;28;20025;-69
2023/12/02 11:41:53;;;;;;;26.83;10.52;;;;;;;;;;4976278;28;20026;-69
2023/12/02 11:44:41;;;;;;;31.55;12.65;;;;;;;;;;4989354;28;20027;-69
2023/12/02 11:47:17;;;;;;;25.50;11.10;;;;;;;;;;4984929;28;20034;-69
2023/12/02 11:49:51;;;;;;;32.70;13.07;;;;;;;;;;4984425;28;20044;-69
2023/12/02 11:52:34;;;;;;;29.50;11.70;;;;;;;;;;4986253;28;20066;-69
2023/12/02 11:55:05;;;;;;;32.90;11.75;;;;;;;;;;4986744;28;20033;-69
2023/12/02 11:57:38;;;;;;;25.70;11.02;;;;;;;;;;4986492;28;20022;-69
2023/12/02 12:00:06;;;;;;;33.38;12.07;;;;;;;;;;4986226;28;20033;-69
2023/12/02 12:02:31;;;;;;;26.98;11.50;;;;;;;;;;4987658;28;20030;-68
2023/12/02 12:05:09;;;;;;;25.90;10.65;;;;;;;;;;4982838;28;20110;-68
2023/12/02 12:07:41;;;;;;;26.65;10.52;;;;;;;;;;4982555;28;20360;-68
2023/12/02 12:10:32;;;;;;;31.85;12.80;;;;;;;;;;4988047;28;20480;-69
2023/12/02 12:12:59;;;;;;;27.65;11.45;;;;;;;;;;4987557;28;20049;-69
2023/12/02 12:15:24;;;;;;;25.70;13.63;;;;;;;;;;4985323;28;20101;-69
2023/12/02 12:17:49;;;;;;;24.60;10.00;;;;;;;;;;4987847;28;20107;-69
2023/12/02 12:20:19;;;;;;;22.10;10.18;;;;;;;;;;4988617;28;20177;-69
2023/12/02 12:22:44;;;;;;;18.52;9.57;;;;;;;;;;4985392;28;20023;-69
2023/12/02 12:25:09;;;;;;;24.02;12.27;;;;;;;;;;4984438;28;20030;-69
2023/12/02 12:27:35;;;;;;;21.55;9.60;;;;;;;;;;4988120;28;20024;-69
2023/12/02 12:30:00;;;;;;;18.92;9.68;;;;;;;;;;4978977;28;20053;-69
2023/12/02 12:32:25;;;;;;;23.05;11.23;;;;;;;;;;4984564;28;20041;-69
2023/12/02 12:34:53;;;;;;;25.45;10.85;;;;;;;;;;4977162;28;20018;-69
2023/12/02 12:37:19;;;;;;;22.25;10.40;;;;;;;;;;4977891;28;20058;-69
2023/12/02 12:39:47;;;;;;;22.10;10.00;;;;;;;;;;4986562;28;20704;-69
2023/12/02 12:42:12;;;;;;;23.13;10.32;;;;;;;;;;4983418;28;20046;-69
2023/12/02 12:44:40;;;;;;;26.83;11.30;;;;;;;;;;4990229;28;20054;-69
2023/12/02 12:47:09;;;;;;;23.95;8.88;;;;;;;;;;4984151;28;20508;-69
2023/12/02 12:49:36;;;;;;;29.35;10.73;;;;;;;;;;4981885;28;20041;-69
2023/12/02 12:52:03;;;;;;;25.15;11.02;;;;;;;;;;4987228;28;20661;-69
2023/12/02 12:54:30;;;;;;;25.75;10.93;;;;;;;;;;4989128;28;20015;-69
2023/12/02 12:56:59;;;;;;;27.17;11.68;;;;;;;;;;4987386;28;20095;-69
2023/12/02 12:59:25;;;;;;;24.95;11.40;;;;;;;;;;4983561;28;20073;-69
2023/12/02 13:02:09;;;;;;;29.67;13.32;;;;;;;;;;4982750;28;20201;-69
2023/12/02 13:04:45;;;;;;;27.48;13.98;;;;;;;;;;4990538;28;20040;-69
2023/12/02 13:07:11;;;;;;;35.00;15.15;;;;;;;;;;4990099;28;20243;-69
2023/12/02 13:09:40;;;;;;;41.30;16.50;;;;;;;;;;4990534;28;20073;-69
2023/12/02 13:12:09;;;;;;;39.53;16.13;;;;;;;;;;4988900;28;20034;-69
2023/12/02 13:14:40;;;;;;;35.57;13.97;;;;;;;;;;4991649;28;20117;-69
2023/12/02 13:17:07;;;;;;;27.75;13.43;;;;;;;;;;4986006;28;20261;-69
2023/12/02 13:19:33;;;;;;;28.95;12.45;;;;;;;;;;4992649;28;20500;-69
2023/12/02 13:22:00;;;;;;;33.63;13.32;;;;;;;;;;4981745;28;20036;-69
2023/12/02 13:24:27;;;;;;;32.15;13.32;;;;;;;;;;4974651;28;20034;-69
2023/12/02 13:26:52;;;;;;;30.98;15.05;;;;;;;;;;4990005;28;20022;-69
2023/12/02 13:29:20;;;;;;;30.83;13.25;;;;;;;;;;4975784;28;20453;-69
2023/12/02 13:31:46;;;;;;;39.75;14.68;;;;;;;;;;4984450;28;20042;-69
2023/12/02 13:34:35;;;;;;;31.52;12.98;;;;;;;;;;4981596;28;20022;-69
2023/12/02 13:37:00;;;;;;;32.05;13.65;;;;;;;;;;4991873;28;20022;-69
2023/12/02 13:39:27;;;;;;;32.55;13.13;;;;;;;;;;4992341;28;20018;-67
2023/12/02 13:41:53;;;;;;;29.20;12.30;;;;;;;;;;4989568;28;20112;-68
2023/12/02 13:44:21;;;;;;;35.03;14.02;;;;;;;;;;4987194;28;20058;-68
2023/12/02 13:46:55;;;;;;;35.28;14.13;;;;;;;;;;4983398;28;20053;-69
2023/12/02 13:49:29;;;;;;;37.75;16.63;;;;;;;;;;4990240;28;20385;-69
2023/12/02 13:52:00;;;;;;;36.40;15.32;;;;;;;;;;4987800;28;20073;-69
2023/12/02 13:54:40;;;;;;;37.00;14.88;;;;;;;;;;4987664;28;20393;-69
2023/12/02 13:57:05;;;;;;;;;;;;;;;;;;4982560;28;20088;-69
2023/12/02 13:59:42;;;;;;;35.38;15.43;;;;;;;;;;4988490;28;19914;-70
2023/12/02 14:02:27;;;;;;;37.30;18.30;;;;;;;;;;4990149;28;20026;-69
2023/12/02 14:05:11;;;;;;;29.88;12.32;;;;;;;;;;4987087;28;20485;-69
2023/12/02 14:07:48;;;;;;;44.85;18.05;;;;;;;;;;4984092;28;20026;-69
2023/12/02 14:10:16;;;;;;;43.75;19.48;;;;;;;;;;4983729;28;20014;-69
2023/12/02 14:13:00;;;;;;;44.47;17.27;;;;;;;;;;4987883;28;20066;-69
2023/12/02 14:15:42;;;;;;;45.80;18.90;;;;;;;;;;4988370;28;20493;-69
2023/12/02 14:18:37;;;;;;;37.33;15.73;;;;;;;;;;4988477;28;20393;-69
2023/12/02 14:21:05;;;;;;;38.10;16.05;;;;;;;;;;4971328;28;20258;-69
2023/12/02 14:23:33;;;;;;;38.95;16.55;;;;;;;;;;4990335;28;20057;-69